Thunder radar more information blitzortung!


Radar de pluja more information rain snow radar


Visita la nostra xarxa de llocs de meteo:

Template documentation
and downloads

And another site



Wind From: 11-12-2017 11:00 Until: 14:59 warning for: Wind Level: Yellow info button

Pagina Historial Weather Underground text

Diari Resum Juny 24, 2017 Unitats:  Imperial    Mètric   Tant
« Previous Dia
SegĂźent Dia »
Diari Setmana Mensual Anual Personalitzada
  Maxima: Minima: Media:
Temperatura: 93.4 °F 67.8 °F 82 °F
Punt de rosada: 67.5 °F 57.9 °F 63.5 °F
Humitat: 75 % 39 % 55 %
Wind Speed: 12.7 mph 0 mph 5 mph
RĂ fegues de vent: 12.7 mph - -
Vent:- - SSW
Pression baro: 30.1 in 29.9 in -
Precipitacions: 0 in    
Historical Graphs
 
 
Dades de taula per Juny 24, 2017
Temps Temperatura Punt de rosada Pression baro Vent Wind Speed RĂ fegues de vent Humitat Rainfall Rate (Hourly)
00:02 75.2 °F 57.9 °F 30.1 in WSW 2.3 mph 2.6 mph 55 % 0 in
00:05 70 °F 60.4 °F 30 in Calm     72 % 0 in
00:07 75.2 °F 57.9 °F 30.1 in WSW 2.3 mph 2.3 mph 55 % 0 in
00:12 75 °F 58.3 °F 30.1 in SW 3.1 mph 3.1 mph 56 % 0 in
00:15 69.4 °F 59.5 °F 30 in Calm   1 mph 71 % 0 in
00:17 74.8 °F 58.6 °F 30.1 in SW 3.5 mph 3.5 mph 57 % 0 in
00:25 69.3 °F 59.5 °F 30 in Calm   1 mph 71 % 0 in
00:35 68.9 °F 59.5 °F 30 in Calm   1 mph 72 % 0 in
00:45 68.9 °F 59.5 °F 30 in Calm   1 mph 72 % 0 in
00:55 68.9 °F 59.5 °F 30 in NE 1 mph 2 mph 72 % 0 in
01:05 68.7 °F 59.7 °F 30 in Calm   1 mph 73 % 0 in
01:15 68.4 °F 59.4 °F 30 in Calm     73 % 0 in
01:25 68.2 °F 59.5 °F 30 in Calm     74 % 0 in
01:35 68 °F 59.4 °F 30 in Calm     74 % 0 in
01:45 67.8 °F 59.5 °F 30 in Calm   1 mph 75 % 0 in
01:55 68 °F 59.7 °F 30 in Calm     75 % 0 in
02:05 68.7 °F 60.4 °F 30 in SSW 3 mph 3 mph 75 % 0 in
02:15 68.9 °F 60.3 °F 30 in East 1 mph 1 mph 74 % 0 in
02:25 69.4 °F 60.8 °F 30.1 in East 2 mph 2 mph 74 % 0 in
02:35 69.6 °F 60.6 °F 30.1 in East 1 mph 2 mph 73 % 0 in
02:45 70.3 °F 61.3 °F 30.1 in Calm   2 mph 73 % 0 in
02:55 69.6 °F 60.3 °F 30.1 in WSW 2 mph 2 mph 72 % 0 in
03:05 70.9 °F 61.3 °F 30.1 in SW 1 mph 1 mph 72 % 0 in
03:15 72.3 °F 62.1 °F 30.1 in Calm   1 mph 70 % 0 in
03:25 72.1 °F 61.3 °F 30.1 in Calm   2 mph 69 % 0 in
03:35 73.8 °F 62.4 °F 30.1 in WSW 1 mph 1 mph 68 % 0 in
03:45 74.1 °F 62.1 °F 30.1 in West 2 mph 2 mph 66 % 0 in
03:55 74.5 °F 62.4 °F 30.1 in West 1 mph 1 mph 66 % 0 in
04:05 76.1 °F 62.6 °F 30.1 in NW 2 mph 3 mph 63 % 0 in
04:15 76.1 °F 62.6 °F 30.1 in NE 2 mph 2 mph 63 % 0 in
04:25 76.6 °F 62.2 °F 30.1 in NE 1 mph 4 mph 61 % 0 in
04:35 77.2 °F 61.3 °F 30.1 in ENE 1 mph 4 mph 58 % 0 in
04:45 78.3 °F 62.2 °F 30.1 in ESE 1 mph 3 mph 58 % 0 in
04:55 78.8 °F 61.3 °F 30.1 in SE 1 mph 4 mph 55 % 0 in
10:06 80.1 °F 61.9 °F 30.1 in NNE 1.2 mph 1.2 mph 54 % 0 in
10:11 81 °F 62.2 °F 30.1 in NE 2.4 mph 2.4 mph 53 % 0 in
10:16 80.4 °F 61.7 °F 30.1 in ENE 3.5 mph 3.5 mph 53 % 0 in
10:21 80.8 °F 61 °F 30.1 in ENE 3.5 mph 3.5 mph 51 % 0 in
10:26 81.5 °F 61.5 °F 30.1 in WNW 2.3 mph 2.3 mph 51 % 0 in
10:31 81.7 °F 61.9 °F 30.1 in ESE 2.3 mph 2.3 mph 51 % 0 in
10:36 81.3 °F 60.3 °F 30.1 in East 2.3 mph 2.3 mph 49 % 0 in
10:41 81.9 °F 61.3 °F 30.1 in East 3.5 mph 3.5 mph 50 % 0 in
10:46 81.7 °F 60.6 °F 30 in NE 3.5 mph 3.5 mph 49 % 0 in
10:51 82.2 °F 61.7 °F 30 in WSW 2.3 mph 2.3 mph 50 % 0 in
10:56 82.8 °F 61.5 °F 30 in ESE 6.9 mph 6.9 mph 49 % 0 in
11:01 82.2 °F 61.2 °F 30 in ENE 5.4 mph 5.4 mph 49 % 0 in
11:06 82 °F 60.4 °F 30 in ESE 2.6 mph 2.6 mph 48 % 0 in
11:11 83.3 °F 61.5 °F 30 in SSE 3.5 mph 3.5 mph 48 % 0 in
11:16 84 °F 61.5 °F 30 in ENE 4.6 mph 4.6 mph 47 % 0 in
11:21 83.3 °F 61 °F 30 in SSE 6.9 mph 6.9 mph 47 % 0 in
11:26 83.3 °F 61 °F 30 in WSW 5.8 mph 5.8 mph 47 % 0 in
11:31 83.5 °F 61.2 °F 30 in NNE 4.6 mph 4.6 mph 47 % 0 in
11:36 84 °F 61.5 °F 30 in SSE 5.8 mph 5.8 mph 47 % 0 in
11:41 84 °F 61.5 °F 30 in East 3.5 mph 3.5 mph 47 % 0 in
11:46 84.2 °F 61.9 °F 30 in NNW 4.6 mph 4.6 mph 47 % 0 in
11:51 84.2 °F 62.4 °F 30 in NNE 5.9 mph 5.9 mph 48 % 0 in
11:56 84.4 °F 63.1 °F 30 in SSW 4 mph 4 mph 49 % 0 in
12:01 84.9 °F 63.7 °F 30 in East 8.1 mph 8.1 mph 49 % 0 in
12:06 84.7 °F 64 °F 30 in SE 2.6 mph 2.6 mph 50 % 0 in
12:11 83.8 °F 64.2 °F 30 in ESE 9.2 mph 9.2 mph 52 % 0 in
12:16 84 °F 64.9 °F 30 in South 10.4 mph 10.4 mph 53 % 0 in
12:21 84 °F 65.7 °F 30 in ESE 9.8 mph 9.8 mph 54 % 0 in
12:26 84.2 °F 65.1 °F 30 in ESE 4.6 mph 4.6 mph 53 % 0 in
12:31 84.4 °F 65.5 °F 30 in ESE 8.1 mph 8.1 mph 53 % 0 in
12:36 84.2 °F 65.8 °F 30 in East 5.8 mph 5.8 mph 54 % 0 in
12:41 83.8 °F 66.6 °F 30 in ENE 4 mph 4 mph 56 % 0 in
12:46 83.5 °F 66 °F 30 in ENE 8.1 mph 8.1 mph 56 % 0 in
12:51 83.5 °F 66 °F 30 in ESE 6.9 mph 6.9 mph 56 % 0 in
12:56 83.8 °F 66.6 °F 30 in ESE 6.9 mph 6.9 mph 56 % 0 in
13:06 84.4 °F 66.4 °F 30 in East 8.1 mph 8.1 mph 55 % 0 in
13:11 84.9 °F 66.4 °F 30 in ENE 5.8 mph 5.8 mph 54 % 0 in
13:16 85.5 °F 66.9 °F 30 in ESE 6.9 mph 6.9 mph 54 % 0 in
13:21 87.3 °F 67.5 °F 30 in ESE 6.9 mph 6.9 mph 52 % 0 in
13:26 88.5 °F 66.9 °F 30 in SW 5.8 mph 5.8 mph 49 % 0 in
13:31 88.7 °F 67.1 °F 30 in SW 6.9 mph 6.9 mph 49 % 0 in
13:36 88.5 °F 66.4 °F 30 in SW 7.4 mph 7.4 mph 48 % 0 in
13:41 89.2 °F 66.4 °F 30 in SW 6.7 mph 6.7 mph 47 % 0 in
13:46 89.6 °F 66 °F 30 in SW 6.9 mph 6.9 mph 46 % 0 in
13:51 88 °F 64 °F 30 in SW 9.2 mph 9.2 mph 45 % 0 in
13:56 88.9 °F 64.8 °F 30 in SW 5.8 mph 5.8 mph 45 % 0 in
14:01 88.5 °F 64.6 °F 30 in WSW 5.8 mph 5.8 mph 45 % 0 in
14:06 89.4 °F 65.3 °F 30 in SSW 5.8 mph 5.8 mph 45 % 0 in
14:11 90 °F 65.1 °F 30 in South 4.6 mph 4.6 mph 44 % 0 in
14:16 90 °F 65.1 °F 30 in SSW 6.9 mph 6.9 mph 44 % 0 in
14:21 90.3 °F 65.5 °F 30 in West 5.8 mph 5.8 mph 44 % 0 in
14:26 89.6 °F 64 °F 30 in West 9.2 mph 9.2 mph 43 % 0 in
14:31 90.1 °F 64.6 °F 30 in SW 7.6 mph 7.6 mph 43 % 0 in
14:36 89.6 °F 64 °F 30 in South 6.9 mph 6.9 mph 43 % 0 in
14:41 90.1 °F 64.6 °F 30 in SW 5.8 mph 5.8 mph 43 % 0 in
14:46 91.2 °F 65.7 °F 30 in SW 7.8 mph 7.8 mph 43 % 0 in
14:51 90.1 °F 64.6 °F 30 in SW 7.8 mph 7.8 mph 43 % 0 in
14:56 90.7 °F 65.1 °F 30 in West 4.6 mph 4.6 mph 43 % 0 in
15:01 91 °F 65.5 °F 30 in SSW 6.9 mph 6.9 mph 43 % 0 in
15:06 90 °F 64.6 °F 30 in West 8.1 mph 8.1 mph 43 % 0 in
15:11 90.1 °F 64 °F 30 in SSE 3.5 mph 3.5 mph 42 % 0 in
15:16 91.6 °F 65.1 °F 30 in South 4.6 mph 4.6 mph 42 % 0 in
15:21 92.3 °F 65.1 °F 30 in SE 2.3 mph 2.3 mph 41 % 0 in
15:26 92.7 °F 65.5 °F 30 in SW 6 mph 6 mph 41 % 0 in
15:31 92.1 °F 64.2 °F 29.9 in West 8.1 mph 8.1 mph 40 % 0 in
15:36 92.8 °F 64.9 °F 29.9 in South 5.8 mph 5.8 mph 40 % 0 in
15:41 93.4 °F 65.5 °F 29.9 in SSW 4.6 mph 4.6 mph 40 % 0 in
15:46 92.7 °F 64.8 °F 29.9 in South 5.8 mph 5.8 mph 40 % 0 in
15:51 92.1 °F 63.7 °F 29.9 in South 4.6 mph 4.6 mph 39 % 0 in
15:56 92.8 °F 64.9 °F 29.9 in WSW 4.6 mph 4.6 mph 40 % 0 in
16:01 93.4 °F 65.5 °F 29.9 in WSW 5.9 mph 5.9 mph 40 % 0 in
16:06 91.8 °F 64 °F 29.9 in West 9.7 mph 9.7 mph 40 % 0 in
16:11 91.2 °F 64.2 °F 29.9 in SW 5.8 mph 5.8 mph 41 % 0 in
16:16 91.9 °F 64.2 °F 29.9 in South 6.2 mph 6.2 mph 40 % 0 in
16:17 92.3 °F 64.6 °F 29.9 in South 6.2 mph 6.2 mph 40 % 0 in
16:22 91.9 °F 64.9 °F 29.9 in SW 11.5 mph 11.5 mph 41 % 0 in
16:27 91.6 °F 65.1 °F 29.9 in SSW 8.1 mph 8.1 mph 42 % 0 in
16:32 90.9 °F 65.3 °F 29.9 in SW 6.9 mph 6.9 mph 43 % 0 in
16:37 89.6 °F 64 °F 29.9 in WSW 8.1 mph 8.1 mph 43 % 0 in
16:40 79.5 °F 63.3 °F 29.9 in SW 2 mph 5 mph 58 % 0 in
16:42 90 °F 65.1 °F 29.9 in WSW 8.1 mph 8.1 mph 44 % 0 in
16:47 89.4 °F 64.6 °F 29.9 in West 5.8 mph 5.8 mph 44 % 0 in
16:50 78.8 °F 63.3 °F 29.9 in SW 3 mph 4 mph 59 % 0 in
16:52 89.6 °F 65.5 °F 29.9 in SW 9.2 mph 9.2 mph 45 % 0 in
16:57 88.9 °F 64.8 °F 29.9 in South 10.5 mph 10.5 mph 45 % 0 in
17:02 89.1 °F 65.7 °F 29.9 in West 11.5 mph 11.5 mph 46 % 0 in
17:07 88.3 °F 64.9 °F 29.9 in West 9.2 mph 9.2 mph 46 % 0 in
17:12 87.3 °F 64.6 °F 29.9 in SW 10.4 mph 10.4 mph 47 % 0 in
17:17 87.6 °F 65.5 °F 29.9 in SW 6.2 mph 6.2 mph 48 % 0 in
17:22 87.3 °F 65.1 °F 29.9 in SW 8.1 mph 8.1 mph 48 % 0 in
17:27 86.4 °F 64.4 °F 29.9 in SSW 12.7 mph 12.7 mph 48 % 0 in
17:32 86.4 °F 64.4 °F 29.9 in South 11.5 mph 11.5 mph 48 % 0 in
17:37 86 °F 64.6 °F 29.9 in West 8.1 mph 8.1 mph 49 % 0 in
17:42 86 °F 64 °F 29.9 in SW 10.4 mph 10.4 mph 48 % 0 in
17:47 86.2 °F 64.2 °F 29.9 in SW 8.1 mph 8.1 mph 48 % 0 in
17:52 85.8 °F 63.9 °F 29.9 in SSW 9.2 mph 9.2 mph 48 % 0 in
17:57 85.3 °F 64 °F 29.9 in SW 6.2 mph 6.2 mph 49 % 0 in
18:02 85.3 °F 64 °F 29.9 in WSW 5.8 mph 5.8 mph 49 % 0 in
18:07 84.9 °F 63.7 °F 29.9 in SW 11.5 mph 11.5 mph 49 % 0 in
18:12 84.6 °F 63.9 °F 29.9 in South 10.4 mph 10.4 mph 50 % 0 in
18:17 84.6 °F 63.9 °F 29.9 in SSW 8.1 mph 8.1 mph 50 % 0 in
18:22 84.7 °F 64.6 °F 29.9 in SW 4.6 mph 4.6 mph 51 % 0 in
18:27 84.7 °F 64.6 °F 29.9 in SW 5.8 mph 5.8 mph 51 % 0 in
18:32 84.7 °F 64.6 °F 29.9 in SSE 5.8 mph 5.8 mph 51 % 0 in
18:37 84.4 °F 64.8 °F 29.9 in WSW 6.9 mph 6.9 mph 52 % 0 in
18:42 83.8 °F 64.9 °F 29.9 in South 9.2 mph 9.2 mph 53 % 0 in
18:47 83.5 °F 64.6 °F 29.9 in SW 6.9 mph 6.9 mph 53 % 0 in
18:52 83.3 °F 64.4 °F 29.9 in SW 12.7 mph 12.7 mph 53 % 0 in
18:57 83.1 °F 64.8 °F 29.9 in South 4.6 mph 4.6 mph 54 % 0 in
19:02 83.8 °F 65.5 °F 29.9 in SW 4.6 mph 4.6 mph 54 % 0 in
19:07 84.4 °F 65.5 °F 29.9 in SW 4.6 mph 4.6 mph 53 % 0 in
19:12 84 °F 65.7 °F 29.9 in West 6.9 mph 6.9 mph 54 % 0 in
19:17 84 °F 65.7 °F 29.9 in SSW 10.4 mph 10.4 mph 54 % 0 in
19:22 84 °F 65.7 °F 29.9 in SSW 6.9 mph 6.9 mph 54 % 0 in
19:27 84.2 °F 65.1 °F 29.9 in SSW 8.1 mph 8.1 mph 53 % 0 in
19:32 84.2 °F 65.8 °F 29.9 in SW 6.2 mph 6.2 mph 54 % 0 in
19:37 83.5 °F 65.7 °F 29.9 in SSW 6.9 mph 6.9 mph 55 % 0 in
19:42 83.7 °F 65.8 °F 29.9 in SW 5.4 mph 5.4 mph 55 % 0 in
19:48 83.5 °F 65.1 °F 29.9 in SW 6.2 mph 6.2 mph 54 % 0 in
19:53 83.3 °F 64.9 °F 29.9 in SW 5.4 mph 5.4 mph 54 % 0 in
19:58 83.1 °F 65.3 °F 29.9 in WSW 6.9 mph 6.9 mph 55 % 0 in
20:03 82.6 °F 64.8 °F 29.9 in SW 5.8 mph 5.8 mph 55 % 0 in
20:08 82.6 °F 65.3 °F 29.9 in SW 4.6 mph 4.6 mph 56 % 0 in
20:13 82.6 °F 64.8 °F 29.9 in SSW 5.8 mph 5.8 mph 55 % 0 in
20:18 82.4 °F 64.6 °F 29.9 in WSW 5.8 mph 5.8 mph 55 % 0 in
20:23 82 °F 64.8 °F 29.9 in WNW 5.8 mph 5.8 mph 56 % 0 in
20:28 81.9 °F 64.6 °F 29.9 in West 5.6 mph 5.6 mph 56 % 0 in
20:33 81.7 °F 64.6 °F 29.9 in WSW 5.8 mph 5.8 mph 56 % 0 in
20:38 81.5 °F 64.2 °F 29.9 in SW 4.6 mph 4.6 mph 56 % 0 in
20:43 81.5 °F 63.9 °F 29.9 in SW 4.6 mph 4.6 mph 55 % 0 in
20:48 81.5 °F 63.9 °F 29.9 in SW 3.5 mph 3.5 mph 55 % 0 in
20:53 81.3 °F 63.7 °F 29.9 in SSW 2.6 mph 2.6 mph 55 % 0 in
20:58 81.1 °F 63.3 °F 29.9 in SSW 2.3 mph 2.3 mph 55 % 0 in
21:03 81 °F 63.3 °F 29.9 in SW 3.5 mph 3.5 mph 55 % 0 in
21:08 80.8 °F 63.1 °F 29.9 in SW 3.6 mph 3.6 mph 55 % 0 in
21:13 80.6 °F 63 °F 29.9 in SW 4.6 mph 4.6 mph 55 % 0 in
21:18 80.4 °F 63.3 °F 29.9 in SW 5.8 mph 5.8 mph 56 % 0 in
22:00 78.1 °F 63.5 °F 29.9 in SW 3.5 mph 3.5 mph 61 % 0 in
22:05 77.5 °F 63 °F 29.9 in SW 3.5 mph 3.5 mph 61 % 0 in
22:10 77.2 °F 63.1 °F 29.9 in WSW 4.6 mph 4.6 mph 62 % 0 in
22:15 77 °F 63 °F 29.9 in WSW 4.6 mph 4.6 mph 62 % 0 in
22:20 76.6 °F 63.1 °F 29.9 in WSW 4.6 mph 4.6 mph 63 % 0 in
22:25 76.5 °F 63.3 °F 29.9 in WSW 6.4 mph 6.4 mph 64 % 0 in
22:30 76.3 °F 63.1 °F 29.9 in SW 5.8 mph 5.8 mph 64 % 0 in
22:35 75.9 °F 63.3 °F 29.9 in SW 3 mph 7 mph 65 % 0 in
22:40 75.7 °F 63.1 °F 29.9 in SW 3 mph 7 mph 65 % 0 in
22:45 75.6 °F 63.3 °F 29.9 in SW 3 mph 6 mph 66 % 0 in
22:50 75.4 °F 63.1 °F 29.9 in SW 2 mph 6 mph 66 % 0 in
22:55 75.2 °F 63.5 °F 29.9 in SW 2 mph 6 mph 67 % 0 in
23:00 75.2 °F 63.5 °F 30 in SW 2 mph 5 mph 67 % 0 in
23:05 75 °F 63.7 °F 30 in SW 2 mph 5 mph 68 % 0 in
23:10 74.8 °F 63.7 °F 30 in SW 2 mph 3 mph 68 % 0 in
23:15 74.7 °F 63.9 °F 30 in SW 5.8 mph 5.8 mph 69 % 0 in
23:20 74.7 °F 63.9 °F 30 in SW 2.3 mph 2.3 mph 69 % 0 in
23:22 74.5 °F 63.7 °F 30 in SW 2.3 mph 2.3 mph 69 % 0 in
23:27 74.5 °F 63.7 °F 30 in WSW 3.5 mph 3.5 mph 69 % 0 in
23:32 74.3 °F 63.5 °F 30 in SW 3.5 mph 3.5 mph 69 % 0 in
23:37 74.3 °F 63.9 °F 30 in SW 2.3 mph 2.3 mph 70 % 0 in
23:42 74.1 °F 63.7 °F 30 in WSW 2.3 mph 2.3 mph 70 % 0 in
23:47 74.1 °F 63.7 °F 30 in SW 1.2 mph   70 % 0 in
23:52 74.1 °F 63.7 °F 30 in SW 2.3 mph 2.3 mph 70 % 0 in
23:57 73.9 °F 63.9 °F 30 in WSW 1.6 mph   71 % 0 in
Meteo Sesrovires
Elogis d' Weather Underground - 3.5 mb

Guio original per  Jim McMurry - jmcmurry@mwt.net Adaptat per a la plantilla per  Wim van der Kuil - Leuven-Template.eu

Trobareu la nostra informacio del temps tambe a:

Weather Underground

AWEKAS